sensor_id;sensor_type;location;lat;lon;timestamp;temperature;humidity
37478;DHT22;23334;54.316;10.182;2022-09-12T00:20:08;9.20;99.90
37478;DHT22;23334;54.316;10.182;2022-09-12T00:22:35;9.20;99.90
37478;DHT22;23334;54.316;10.182;2022-09-12T00:32:19;9.00;99.90
37478;DHT22;23334;54.316;10.182;2022-09-12T00:49:36;8.90;99.90
37478;DHT22;23334;54.316;10.182;2022-09-12T00:52:16;8.90;99.90
37478;DHT22;23334;54.316;10.182;2022-09-12T00:55:04;8.90;99.90
37478;DHT22;23334;54.316;10.182;2022-09-12T00:57:36;8.90;99.90
37478;DHT22;23334;54.316;10.182;2022-09-12T01:00:10;8.80;99.90
37478;DHT22;23334;54.316;10.182;2022-09-12T01:02:43;8.80;99.90
37478;DHT22;23334;54.316;10.182;2022-09-12T01:05:10;8.80;99.90
37478;DHT22;23334;54.316;10.182;2022-09-12T01:07:37;8.80;99.90
37478;DHT22;23334;54.316;10.182;2022-09-12T01:10:05;8.80;99.90
37478;DHT22;23334;54.316;10.182;2022-09-12T01:12:32;8.70;99.90
37478;DHT22;23334;54.316;10.182;2022-09-12T01:14:58;8.70;99.90
37478;DHT22;23334;54.316;10.182;2022-09-12T01:17:38;8.70;99.90
37478;DHT22;23334;54.316;10.182;2022-09-12T01:20:26;8.70;99.90
37478;DHT22;23334;54.316;10.182;2022-09-12T01:23:17;8.70;99.90
37478;DHT22;23334;54.316;10.182;2022-09-12T01:28:48;8.70;99.90
37478;DHT22;23334;54.316;10.182;2022-09-12T01:31:21;8.70;99.90
37478;DHT22;23334;54.316;10.182;2022-09-12T01:39:29;8.60;99.90
37478;DHT22;23334;54.316;10.182;2022-09-12T01:45:14;8.50;99.90
37478;DHT22;23334;54.316;10.182;2022-09-12T01:47:55;8.50;99.90
37478;DHT22;23334;54.316;10.182;2022-09-12T01:50:31;8.40;99.90
37478;DHT22;23334;54.316;10.182;2022-09-12T01:53:10;8.50;99.90
37478;DHT22;23334;54.316;10.182;2022-09-12T01:55:45;8.40;99.90
37478;DHT22;23334;54.316;10.182;2022-09-12T01:58:12;8.50;99.90
37478;DHT22;23334;54.316;10.182;2022-09-12T02:00:59;8.50;99.90
37478;DHT22;23334;54.316;10.182;2022-09-12T02:03:31;8.40;99.90
37478;DHT22;23334;54.316;10.182;2022-09-12T02:06:06;8.30;99.90
37478;DHT22;23334;54.316;10.182;2022-09-12T02:08:39;8.30;99.90
37478;DHT22;23334;54.316;10.182;2022-09-12T02:11:10;8.30;99.90
37478;DHT22;23334;54.316;10.182;2022-09-12T02:16:06;8.30;99.90
37478;DHT22;23334;54.316;10.182;2022-09-12T02:21:00;8.30;99.90
37478;DHT22;23334;54.316;10.182;2022-09-12T02:23:30;8.30;99.90
37478;DHT22;23334;54.316;10.182;2022-09-12T02:26:01;8.30;99.90
37478;DHT22;23334;54.316;10.182;2022-09-12T02:28:34;8.30;99.90
37478;DHT22;23334;54.316;10.182;2022-09-12T02:33:53;8.30;99.90
37478;DHT22;23334;54.316;10.182;2022-09-12T02:36:48;8.20;99.90
37478;DHT22;23334;54.316;10.182;2022-09-12T02:39:16;8.20;99.90
37478;DHT22;23334;54.316;10.182;2022-09-12T02:41:45;8.20;99.90
37478;DHT22;23334;54.316;10.182;2022-09-12T02:46:46;8.10;99.90
37478;DHT22;23334;54.316;10.182;2022-09-12T02:49:13;8.00;99.90
37478;DHT22;23334;54.316;10.182;2022-09-12T02:59:04;7.90;99.90
37478;DHT22;23334;54.316;10.182;2022-09-12T03:01:45;8.00;99.90
37478;DHT22;23334;54.316;10.182;2022-09-12T03:04:28;7.90;99.90
37478;DHT22;23334;54.316;10.182;2022-09-12T03:10:05;7.50;99.90
37478;DHT22;23334;54.316;10.182;2022-09-12T03:16:13;7.90;99.90
37478;DHT22;23334;54.316;10.182;2022-09-12T03:23:47;7.80;99.90
37478;DHT22;23334;54.316;10.182;2022-09-12T03:26:22;7.80;99.90
37478;DHT22;23334;54.316;10.182;2022-09-12T03:28:51;7.70;99.90
37478;DHT22;23334;54.316;10.182;2022-09-12T03:31:18;7.70;99.90
37478;DHT22;23334;54.316;10.182;2022-09-12T03:33:44;7.80;99.90
37478;DHT22;23334;54.316;10.182;2022-09-12T03:36:15;7.70;99.90
37478;DHT22;23334;54.316;10.182;2022-09-12T03:53:18;7.70;99.90
37478;DHT22;23334;54.316;10.182;2022-09-12T04:00:37;7.70;99.90
37478;DHT22;23334;54.316;10.182;2022-09-12T04:20:05;7.60;99.90
37478;DHT22;23334;54.316;10.182;2022-09-12T04:27:23;7.70;99.90
37478;DHT22;23334;54.316;10.182;2022-09-12T04:46:50;7.60;99.90
37478;DHT22;23334;54.316;10.182;2022-09-12T04:54:13;7.70;99.90
37478;DHT22;23334;54.316;10.182;2022-09-12T04:56:41;7.70;99.90
37478;DHT22;23334;54.316;10.182;2022-09-12T05:01:34;7.70;99.90
37478;DHT22;23334;54.316;10.182;2022-09-12T05:06:28;7.80;99.90
37478;DHT22;23334;54.316;10.182;2022-09-12T05:11:26;8.50;99.90
37478;DHT22;23334;54.316;10.182;2022-09-12T05:16:19;7.80;99.90
37478;DHT22;23334;54.316;10.182;2022-09-12T05:18:45;7.90;99.90
37478;DHT22;23334;54.316;10.182;2022-09-12T05:21:14;8.00;99.90
37478;DHT22;23334;54.316;10.182;2022-09-12T05:28:36;8.20;99.90
37478;DHT22;23334;54.316;10.182;2022-09-12T05:31:12;8.20;99.90
37478;DHT22;23334;54.316;10.182;2022-09-12T05:33:39;8.20;99.90
37478;DHT22;23334;54.316;10.182;2022-09-12T05:36:06;8.30;99.90
37478;DHT22;23334;54.316;10.182;2022-09-12T05:38:35;8.30;99.90
37478;DHT22;23334;54.316;10.182;2022-09-12T05:41:03;8.40;99.90
37478;DHT22;23334;54.316;10.182;2022-09-12T05:46:04;8.50;99.90
37478;DHT22;23334;54.316;10.182;2022-09-12T05:51:00;9.00;99.90
37478;DHT22;23334;54.316;10.182;2022-09-12T05:53:26;9.40;99.90
37478;DHT22;23334;54.316;10.182;2022-09-12T05:56:04;10.00;99.90
37478;DHT22;23334;54.316;10.182;2022-09-12T06:01:11;10.50;99.90
37478;DHT22;23334;54.316;10.182;2022-09-12T06:03:42;10.50;99.90
37478;DHT22;23334;54.316;10.182;2022-09-12T06:11:05;10.50;99.90
37478;DHT22;23334;54.316;10.182;2022-09-12T06:13:33;10.50;99.90
37478;DHT22;23334;54.316;10.182;2022-09-12T06:16:06;10.50;99.90
37478;DHT22;23334;54.316;10.182;2022-09-12T06:18:33;10.60;99.90
37478;DHT22;23334;54.316;10.182;2022-09-12T06:21:11;10.70;99.90
37478;DHT22;23334;54.316;10.182;2022-09-12T06:26:04;11.00;99.90
37478;DHT22;23334;54.316;10.182;2022-09-12T06:28:31;11.20;99.90
37478;DHT22;23334;54.316;10.182;2022-09-12T06:31:18;11.30;99.90
37478;DHT22;23334;54.316;10.182;2022-09-12T06:33:46;11.50;99.90
37478;DHT22;23334;54.316;10.182;2022-09-12T06:36:14;11.70;99.90
37478;DHT22;23334;54.316;10.182;2022-09-12T06:41:08;12.40;99.90
37478;DHT22;23334;54.316;10.182;2022-09-12T06:46:01;12.80;99.90
37478;DHT22;23334;54.316;10.182;2022-09-12T06:50:55;13.50;99.90
37478;DHT22;23334;54.316;10.182;2022-09-12T07:05:32;15.90;99.90
37478;DHT22;23334;54.316;10.182;2022-09-12T07:20:08;20.60;99.90
37478;DHT22;23334;54.316;10.182;2022-09-12T07:37:11;23.90;99.90
37478;DHT22;23334;54.316;10.182;2022-09-12T07:39:36;24.30;99.90
37478;DHT22;23334;54.316;10.182;2022-09-12T07:42:02;25.20;99.90
37478;DHT22;23334;54.316;10.182;2022-09-12T07:44:27;26.00;99.90
37478;DHT22;23334;54.316;10.182;2022-09-12T07:46:53;26.70;99.90
37478;DHT22;23334;54.316;10.182;2022-09-12T07:51:45;28.10;99.90
37478;DHT22;23334;54.316;10.182;2022-09-12T07:54:10;27.90;99.90
37478;DHT22;23334;54.316;10.182;2022-09-12T07:59:02;28.40;99.90
37478;DHT22;23334;54.316;10.182;2022-09-12T08:03:58;30.00;97.10
37478;DHT22;23334;54.316;10.182;2022-09-12T08:06:27;29.70;94.60
37478;DHT22;23334;54.316;10.182;2022-09-12T08:08:57;31.00;93.30
37478;DHT22;23334;54.316;10.182;2022-09-12T08:11:25;30.70;93.50
37478;DHT22;23334;54.316;10.182;2022-09-12T08:13:53;30.40;92.10
37478;DHT22;23334;54.316;10.182;2022-09-12T08:16:24;30.10;90.50
37478;DHT22;23334;54.316;10.182;2022-09-12T08:21:21;29.10;90.10
37478;DHT22;23334;54.316;10.182;2022-09-12T08:23:53;29.10;90.30
37478;DHT22;23334;54.316;10.182;2022-09-12T08:26:19;29.10;90.20
37478;DHT22;23334;54.316;10.182;2022-09-12T08:28:45;29.00;92.20
37478;DHT22;23334;54.316;10.182;2022-09-12T08:31:13;28.70;91.30
37478;DHT22;23334;54.316;10.182;2022-09-12T08:33:39;28.40;90.50
37478;DHT22;23334;54.316;10.182;2022-09-12T08:38:37;28.80;93.50
37478;DHT22;23334;54.316;10.182;2022-09-12T08:49:33;30.10;87.80
37478;DHT22;23334;54.316;10.182;2022-09-12T08:52:06;30.10;82.10
37478;DHT22;23334;54.316;10.182;2022-09-12T08:54:39;29.60;83.60
37478;DHT22;23334;54.316;10.182;2022-09-12T08:57:08;29.90;86.10
37478;DHT22;23334;54.316;10.182;2022-09-12T08:59:38;30.10;81.70
37478;DHT22;23334;54.316;10.182;2022-09-12T09:08:25;30.50;80.00
37478;DHT22;23334;54.316;10.182;2022-09-12T09:11:17;30.70;80.40
37478;DHT22;23334;54.316;10.182;2022-09-12T09:16:51;32.00;77.50
37478;DHT22;23334;54.316;10.182;2022-09-12T09:19:29;30.60;76.60
37478;DHT22;23334;54.316;10.182;2022-09-12T09:22:03;29.90;77.80
37478;DHT22;23334;54.316;10.182;2022-09-12T09:24:41;29.40;80.40
37478;DHT22;23334;54.316;10.182;2022-09-12T09:27:14;28.10;84.10
37478;DHT22;23334;54.316;10.182;2022-09-12T09:29:49;27.50;84.40
37478;DHT22;23334;54.316;10.182;2022-09-12T09:32:28;27.20;84.90
37478;DHT22;23334;54.316;10.182;2022-09-12T09:40:20;28.30;91.10
37478;DHT22;23334;54.316;10.182;2022-09-12T09:43:11;28.50;85.10
37478;DHT22;23334;54.316;10.182;2022-09-12T09:45:40;28.30;85.10
37478;DHT22;23334;54.316;10.182;2022-09-12T09:48:18;27.70;88.20
37478;DHT22;23334;54.316;10.182;2022-09-12T09:50:45;27.80;87.70
37478;DHT22;23334;54.316;10.182;2022-09-12T09:53:34;26.80;89.30
37478;DHT22;23334;54.316;10.182;2022-09-12T09:56:08;27.50;88.70
37478;DHT22;23334;54.316;10.182;2022-09-12T09:58:35;25.60;88.50
37478;DHT22;23334;54.316;10.182;2022-09-12T10:01:05;27.10;90.40
37478;DHT22;23334;54.316;10.182;2022-09-12T10:03:37;27.10;90.50
37478;DHT22;23334;54.316;10.182;2022-09-12T10:08:46;27.30;89.10
37478;DHT22;23334;54.316;10.182;2022-09-12T10:11:19;26.60;90.70
37478;DHT22;23334;54.316;10.182;2022-09-12T10:13:57;26.20;92.70
37478;DHT22;23334;54.316;10.182;2022-09-12T10:16:31;26.40;91.80
37478;DHT22;23334;54.316;10.182;2022-09-12T10:19:00;26.30;91.60
37478;DHT22;23334;54.316;10.182;2022-09-12T10:21:44;26.00;92.00
37478;DHT22;23334;54.316;10.182;2022-09-12T10:26:55;25.60;93.30
37478;DHT22;23334;54.316;10.182;2022-09-12T10:29:28;25.40;94.30
37478;DHT22;23334;54.316;10.182;2022-09-12T10:32:05;25.30;93.70
37478;DHT22;23334;54.316;10.182;2022-09-12T10:34:36;25.20;95.60
37478;DHT22;23334;54.316;10.182;2022-09-12T10:39:34;24.40;97.70
37478;DHT22;23334;54.316;10.182;2022-09-12T10:42:03;24.40;97.70
37478;DHT22;23334;54.316;10.182;2022-09-12T10:44:34;24.20;99.10
37478;DHT22;23334;54.316;10.182;2022-09-12T10:47:20;24.00;99.30
37478;DHT22;23334;54.316;10.182;2022-09-12T10:49:46;23.70;99.90
37478;DHT22;23334;54.316;10.182;2022-09-12T10:52:22;23.70;99.90
37478;DHT22;23334;54.316;10.182;2022-09-12T10:54:52;23.60;99.90
37478;DHT22;23334;54.316;10.182;2022-09-12T11:00:13;23.00;99.90
37478;DHT22;23334;54.316;10.182;2022-09-12T11:05:51;22.90;99.90
37478;DHT22;23334;54.316;10.182;2022-09-12T11:08:58;23.10;99.90
37478;DHT22;23334;54.316;10.182;2022-09-12T11:14:30;23.20;99.90
37478;DHT22;23334;54.316;10.182;2022-09-12T11:17:10;22.90;99.90
37478;DHT22;23334;54.316;10.182;2022-09-12T11:22:34;22.80;99.90
37478;DHT22;23334;54.316;10.182;2022-09-12T11:25:27;22.70;99.90
37478;DHT22;23334;54.316;10.182;2022-09-12T11:33:43;22.90;99.90
37478;DHT22;23334;54.316;10.182;2022-09-12T11:36:45;23.00;99.90
37478;DHT22;23334;54.316;10.182;2022-09-12T11:39:22;23.00;99.90
37478;DHT22;23334;54.316;10.182;2022-09-12T11:41:56;22.90;99.90
37478;DHT22;23334;54.316;10.182;2022-09-12T11:44:33;22.70;99.90
37478;DHT22;23334;54.316;10.182;2022-09-12T11:47:04;22.90;99.90
37478;DHT22;23334;54.316;10.182;2022-09-12T11:49:35;22.80;99.90
37478;DHT22;23334;54.316;10.182;2022-09-12T11:52:24;22.70;99.90
37478;DHT22;23334;54.316;10.182;2022-09-12T11:55:15;22.70;99.90
37478;DHT22;23334;54.316;10.182;2022-09-12T11:57:52;22.60;99.90
37478;DHT22;23334;54.316;10.182;2022-09-12T12:00:35;22.60;99.90
37478;DHT22;23334;54.316;10.182;2022-09-12T12:05:42;22.90;99.90
37478;DHT22;23334;54.316;10.182;2022-09-12T12:08:09;23.10;99.90
37478;DHT22;23334;54.316;10.182;2022-09-12T12:13:48;23.30;99.90
37478;DHT22;23334;54.316;10.182;2022-09-12T12:16:31;23.20;99.90
37478;DHT22;23334;54.316;10.182;2022-09-12T12:19:03;23.20;99.90
37478;DHT22;23334;54.316;10.182;2022-09-12T12:34:37;22.60;99.90
37478;DHT22;23334;54.316;10.182;2022-09-12T12:48:09;23.10;99.90
37478;DHT22;23334;54.316;10.182;2022-09-12T12:50:36;23.20;99.90
37478;DHT22;23334;54.316;10.182;2022-09-12T12:56:05;23.20;99.90
37478;DHT22;23334;54.316;10.182;2022-09-12T12:58:36;23.00;99.90
37478;DHT22;23334;54.316;10.182;2022-09-12T13:01:13;22.90;99.90
37478;DHT22;23334;54.316;10.182;2022-09-12T13:03:45;22.50;99.90
37478;DHT22;23334;54.316;10.182;2022-09-12T13:07:12;22.90;99.90
37478;DHT22;23334;54.316;10.182;2022-09-12T13:09:24;23.00;99.90
37478;DHT22;23334;54.316;10.182;2022-09-12T13:12:04;23.00;99.90
37478;DHT22;23334;54.316;10.182;2022-09-12T13:17:07;23.10;99.90
37478;DHT22;23334;54.316;10.182;2022-09-12T13:19:39;23.20;99.90
37478;DHT22;23334;54.316;10.182;2022-09-12T13:22:07;23.20;99.90
37478;DHT22;23334;54.316;10.182;2022-09-12T13:24:41;22.80;99.90
37478;DHT22;23334;54.316;10.182;2022-09-12T13:27:17;22.90;99.90
37478;DHT22;23334;54.316;10.182;2022-09-12T13:29:43;22.90;99.90
37478;DHT22;23334;54.316;10.182;2022-09-12T13:32:11;23.20;99.90
37478;DHT22;23334;54.316;10.182;2022-09-12T13:34:49;23.10;99.90
37478;DHT22;23334;54.316;10.182;2022-09-12T13:37:47;23.10;99.90
37478;DHT22;23334;54.316;10.182;2022-09-12T13:43:14;23.00;99.90
37478;DHT22;23334;54.316;10.182;2022-09-12T13:45:43;22.90;99.90
37478;DHT22;23334;54.316;10.182;2022-09-12T13:48:19;22.80;99.90
37478;DHT22;23334;54.316;10.182;2022-09-12T13:50:53;23.00;99.90
37478;DHT22;23334;54.316;10.182;2022-09-12T13:55:51;23.10;99.90
37478;DHT22;23334;54.316;10.182;2022-09-12T13:58:29;22.90;99.90
37478;DHT22;23334;54.316;10.182;2022-09-12T14:03:50;22.40;99.90
37478;DHT22;23334;54.316;10.182;2022-09-12T14:06:47;21.70;99.90
37478;DHT22;23334;54.316;10.182;2022-09-12T14:09:26;22.00;99.90
37478;DHT22;23334;54.316;10.182;2022-09-12T14:11:54;22.10;99.90
37478;DHT22;23334;54.316;10.182;2022-09-12T14:21:56;22.30;99.90
37478;DHT22;23334;54.316;10.182;2022-09-12T14:24:22;22.20;99.90
37478;DHT22;23334;54.316;10.182;2022-09-12T14:29:18;22.40;99.90
37478;DHT22;23334;54.316;10.182;2022-09-12T14:36:51;22.40;99.90
37478;DHT22;23334;54.316;10.182;2022-09-12T14:39:23;22.10;99.90
37478;DHT22;23334;54.316;10.182;2022-09-12T14:42:00;22.20;99.90
37478;DHT22;23334;54.316;10.182;2022-09-12T14:47:09;22.60;99.90
37478;DHT22;23334;54.316;10.182;2022-09-12T14:49:35;22.40;99.90
37478;DHT22;23334;54.316;10.182;2022-09-12T14:57:17;21.90;99.90
37478;DHT22;23334;54.316;10.182;2022-09-12T14:59:51;21.90;99.90
37478;DHT22;23334;54.316;10.182;2022-09-12T15:04:47;21.80;99.90
37478;DHT22;23334;54.316;10.182;2022-09-12T15:07:34;21.50;99.90
37478;DHT22;23334;54.316;10.182;2022-09-12T15:10:21;21.20;99.90
37478;DHT22;23334;54.316;10.182;2022-09-12T15:12:48;21.30;99.90
37478;DHT22;23334;54.316;10.182;2022-09-12T15:15:16;21.10;99.90
37478;DHT22;23334;54.316;10.182;2022-09-12T15:17:43;21.30;99.90
37478;DHT22;23334;54.316;10.182;2022-09-12T15:20:09;21.30;99.90
37478;DHT22;23334;54.316;10.182;2022-09-12T15:22:37;20.90;99.90
37478;DHT22;23334;54.316;10.182;2022-09-12T15:25:04;21.20;99.90
37478;DHT22;23334;54.316;10.182;2022-09-12T15:27:30;21.20;99.90
37478;DHT22;23334;54.316;10.182;2022-09-12T15:29:55;21.00;99.90
37478;DHT22;23334;54.316;10.182;2022-09-12T15:32:26;21.00;99.90
37478;DHT22;23334;54.316;10.182;2022-09-12T15:34:52;21.20;99.90
37478;DHT22;23334;54.316;10.182;2022-09-12T15:37:20;21.00;99.90
37478;DHT22;23334;54.316;10.182;2022-09-12T15:42:13;21.10;99.90
37478;DHT22;23334;54.316;10.182;2022-09-12T16:23:48;20.10;99.90
37478;DHT22;23334;54.316;10.182;2022-09-12T16:26:15;20.20;99.90
37478;DHT22;23334;54.316;10.182;2022-09-12T16:28:41;19.90;99.90
37478;DHT22;23334;54.316;10.182;2022-09-12T16:31:09;19.90;99.90
37478;DHT22;23334;54.316;10.182;2022-09-12T16:33:37;19.50;99.90
37478;DHT22;23334;54.316;10.182;2022-09-12T16:36:05;19.70;99.90
37478;DHT22;23334;54.316;10.182;2022-09-12T16:38:31;19.70;99.90
37478;DHT22;23334;54.316;10.182;2022-09-12T16:41:02;19.70;99.90
37478;DHT22;23334;54.316;10.182;2022-09-12T16:43:29;19.60;99.90
37478;DHT22;23334;54.316;10.182;2022-09-12T16:46:20;19.50;99.90
37478;DHT22;23334;54.316;10.182;2022-09-12T16:48:48;19.50;99.90
37478;DHT22;23334;54.316;10.182;2022-09-12T16:51:16;19.30;99.90
37478;DHT22;23334;54.316;10.182;2022-09-12T16:53:44;19.10;99.90
37478;DHT22;23334;54.316;10.182;2022-09-12T16:56:10;19.30;99.90
37478;DHT22;23334;54.316;10.182;2022-09-12T16:58:37;19.20;99.90
37478;DHT22;23334;54.316;10.182;2022-09-12T17:01:06;19.00;99.90
37478;DHT22;23334;54.316;10.182;2022-09-12T17:03:31;19.20;99.90
37478;DHT22;23334;54.316;10.182;2022-09-12T17:06:08;19.00;99.90
37478;DHT22;23334;54.316;10.182;2022-09-12T17:08:36;19.10;99.90
37478;DHT22;23334;54.316;10.182;2022-09-12T17:11:10;18.80;99.90
37478;DHT22;23334;54.316;10.182;2022-09-12T17:13:37;19.00;99.90
37478;DHT22;23334;54.316;10.182;2022-09-12T17:16:05;18.30;99.90
37478;DHT22;23334;54.316;10.182;2022-09-12T17:18:31;18.80;99.90
37478;DHT22;23334;54.316;10.182;2022-09-12T17:20:56;18.80;99.90
37478;DHT22;23334;54.316;10.182;2022-09-12T17:23:22;18.80;99.90
37478;DHT22;23334;54.316;10.182;2022-09-12T17:25:49;18.70;99.90
37478;DHT22;23334;54.316;10.182;2022-09-12T17:28:16;18.50;99.90
37478;DHT22;23334;54.316;10.182;2022-09-12T17:30:42;18.20;99.90
37478;DHT22;23334;54.316;10.182;2022-09-12T17:33:08;18.60;99.90
37478;DHT22;23334;54.316;10.182;2022-09-12T17:38:00;18.50;99.90
37478;DHT22;23334;54.316;10.182;2022-09-12T17:40:26;18.50;99.90
37478;DHT22;23334;54.316;10.182;2022-09-12T17:42:51;18.40;99.90
37478;DHT22;23334;54.316;10.182;2022-09-12T17:45:17;18.20;99.90
37478;DHT22;23334;54.316;10.182;2022-09-12T17:47:43;18.40;99.90
37478;DHT22;23334;54.316;10.182;2022-09-12T17:52:35;18.30;99.90
37478;DHT22;23334;54.316;10.182;2022-09-12T17:55:01;18.30;99.90
37478;DHT22;23334;54.316;10.182;2022-09-12T17:57:27;18.20;99.90
37478;DHT22;23334;54.316;10.182;2022-09-12T17:59:52;18.40;99.90
37478;DHT22;23334;54.316;10.182;2022-09-12T18:02:18;18.20;99.90
37478;DHT22;23334;54.316;10.182;2022-09-12T18:04:45;18.20;99.90
37478;DHT22;23334;54.316;10.182;2022-09-12T18:07:12;18.70;99.90
37478;DHT22;23334;54.316;10.182;2022-09-12T18:09:38;18.50;99.90
37478;DHT22;23334;54.316;10.182;2022-09-12T18:12:04;18.10;99.90
37478;DHT22;23334;54.316;10.182;2022-09-12T18:14:29;18.00;99.90
37478;DHT22;23334;54.316;10.182;2022-09-12T18:16:55;17.80;99.90
37478;DHT22;23334;54.316;10.182;2022-09-12T18:19:22;17.80;99.90
37478;DHT22;23334;54.316;10.182;2022-09-12T18:21:48;17.40;99.90
37478;DHT22;23334;54.316;10.182;2022-09-12T18:24:13;17.80;99.90
37478;DHT22;23334;54.316;10.182;2022-09-12T18:26:39;17.80;99.90
37478;DHT22;23334;54.316;10.182;2022-09-12T18:29:05;17.80;99.90
37478;DHT22;23334;54.316;10.182;2022-09-12T18:31:31;17.60;99.90
37478;DHT22;23334;54.316;10.182;2022-09-12T18:33:57;17.80;99.90
37478;DHT22;23334;54.316;10.182;2022-09-12T18:36:24;17.70;99.90
37478;DHT22;23334;54.316;10.182;2022-09-12T18:38:49;17.80;99.90
37478;DHT22;23334;54.316;10.182;2022-09-12T18:41:17;17.70;99.90
37478;DHT22;23334;54.316;10.182;2022-09-12T18:43:44;17.60;99.90
37478;DHT22;23334;54.316;10.182;2022-09-12T18:46:12;17.60;99.90
37478;DHT22;23334;54.316;10.182;2022-09-12T18:53:38;17.70;99.90
37478;DHT22;23334;54.316;10.182;2022-09-12T18:56:06;17.80;99.90
37478;DHT22;23334;54.316;10.182;2022-09-12T18:58:35;17.50;99.90
37478;DHT22;23334;54.316;10.182;2022-09-12T19:01:12;17.80;99.90
37478;DHT22;23334;54.316;10.182;2022-09-12T19:03:38;18.50;99.90
37478;DHT22;23334;54.316;10.182;2022-09-12T19:06:28;17.80;99.90
37478;DHT22;23334;54.316;10.182;2022-09-12T19:08:55;17.70;99.90
37478;DHT22;23334;54.316;10.182;2022-09-12T19:11:22;17.80;99.90
37478;DHT22;23334;54.316;10.182;2022-09-12T19:13:49;17.70;99.90
37478;DHT22;23334;54.316;10.182;2022-09-12T19:16:18;17.60;99.90
37478;DHT22;23334;54.316;10.182;2022-09-12T19:18:44;17.50;99.90
37478;DHT22;23334;54.316;10.182;2022-09-12T19:21:15;17.80;99.90
37478;DHT22;23334;54.316;10.182;2022-09-12T19:23:41;17.60;99.90
37478;DHT22;23334;54.316;10.182;2022-09-12T19:26:09;17.70;99.90
37478;DHT22;23334;54.316;10.182;2022-09-12T19:28:35;17.70;99.90
37478;DHT22;23334;54.316;10.182;2022-09-12T19:31:09;17.80;99.90
37478;DHT22;23334;54.316;10.182;2022-09-12T19:33:35;17.90;99.90
37478;DHT22;23334;54.316;10.182;2022-09-12T19:36:02;17.30;99.90
37478;DHT22;23334;54.316;10.182;2022-09-12T19:38:28;17.40;99.90
37478;DHT22;23334;54.316;10.182;2022-09-12T19:40:55;17.80;99.90
37478;DHT22;23334;54.316;10.182;2022-09-12T19:45:47;17.90;99.90
37478;DHT22;23334;54.316;10.182;2022-09-12T19:50:38;17.70;99.90
37478;DHT22;23334;54.316;10.182;2022-09-12T19:53:04;17.60;99.90
37478;DHT22;23334;54.316;10.182;2022-09-12T19:55:30;17.60;99.90
37478;DHT22;23334;54.316;10.182;2022-09-12T19:57:55;17.50;99.90
37478;DHT22;23334;54.316;10.182;2022-09-12T20:00:21;17.40;99.90
37478;DHT22;23334;54.316;10.182;2022-09-12T20:02:50;17.40;99.90
37478;DHT22;23334;54.316;10.182;2022-09-12T20:05:16;17.50;99.90
37478;DHT22;23334;54.316;10.182;2022-09-12T20:07:42;17.40;99.90
37478;DHT22;23334;54.316;10.182;2022-09-12T20:10:08;17.40;99.90
37478;DHT22;23334;54.316;10.182;2022-09-12T20:12:33;17.40;99.90
37478;DHT22;23334;54.316;10.182;2022-09-12T20:14:59;17.40;99.90
37478;DHT22;23334;54.316;10.182;2022-09-12T20:17:24;17.40;99.90
37478;DHT22;23334;54.316;10.182;2022-09-12T20:19:50;17.40;99.90
37478;DHT22;23334;54.316;10.182;2022-09-12T20:22:15;17.40;99.90
37478;DHT22;23334;54.316;10.182;2022-09-12T20:24:41;17.40;99.90
37478;DHT22;23334;54.316;10.182;2022-09-12T20:27:06;17.40;99.90
37478;DHT22;23334;54.316;10.182;2022-09-12T20:29:32;17.40;99.90
37478;DHT22;23334;54.316;10.182;2022-09-12T20:31:57;17.40;99.90
37478;DHT22;23334;54.316;10.182;2022-09-12T20:34:23;17.40;99.90
37478;DHT22;23334;54.316;10.182;2022-09-12T20:36:48;17.40;99.90
37478;DHT22;23334;54.316;10.182;2022-09-12T20:39:16;17.50;99.90
37478;DHT22;23334;54.316;10.182;2022-09-12T20:41:42;17.50;99.90
37478;DHT22;23334;54.316;10.182;2022-09-12T20:44:07;17.60;99.90
37478;DHT22;23334;54.316;10.182;2022-09-12T20:46:34;17.50;99.90
37478;DHT22;23334;54.316;10.182;2022-09-12T20:48:59;17.60;99.90
37478;DHT22;23334;54.316;10.182;2022-09-12T20:51:25;17.70;99.90
37478;DHT22;23334;54.316;10.182;2022-09-12T20:53:55;17.60;99.90
37478;DHT22;23334;54.316;10.182;2022-09-12T20:56:22;17.50;99.90
37478;DHT22;23334;54.316;10.182;2022-09-12T20:58:48;17.60;99.90
37478;DHT22;23334;54.316;10.182;2022-09-12T21:01:14;17.60;99.90
37478;DHT22;23334;54.316;10.182;2022-09-12T21:03:41;17.40;99.90
37478;DHT22;23334;54.316;10.182;2022-09-12T21:06:08;17.30;99.90
37478;DHT22;23334;54.316;10.182;2022-09-12T21:08:34;17.50;99.90
37478;DHT22;23334;54.316;10.182;2022-09-12T21:11:01;17.70;99.90
37478;DHT22;23334;54.316;10.182;2022-09-12T21:13:26;17.70;99.90
37478;DHT22;23334;54.316;10.182;2022-09-12T21:16:03;17.60;99.90
37478;DHT22;23334;54.316;10.182;2022-09-12T21:18:29;17.70;99.90
37478;DHT22;23334;54.316;10.182;2022-09-12T21:20:55;17.50;99.90
37478;DHT22;23334;54.316;10.182;2022-09-12T21:23:22;17.70;99.90
37478;DHT22;23334;54.316;10.182;2022-09-12T21:25:48;17.50;99.90
37478;DHT22;23334;54.316;10.182;2022-09-12T21:28:15;17.30;99.90
37478;DHT22;23334;54.316;10.182;2022-09-12T21:30:41;17.70;99.90
37478;DHT22;23334;54.316;10.182;2022-09-12T21:33:08;17.60;99.90
37478;DHT22;23334;54.316;10.182;2022-09-12T21:35:34;17.70;99.90
37478;DHT22;23334;54.316;10.182;2022-09-12T21:37:59;17.60;99.90
37478;DHT22;23334;54.316;10.182;2022-09-12T21:40:25;17.70;99.90
37478;DHT22;23334;54.316;10.182;2022-09-12T21:42:51;17.70;99.90
37478;DHT22;23334;54.316;10.182;2022-09-12T21:45:16;17.80;99.90
37478;DHT22;23334;54.316;10.182;2022-09-12T21:47:42;17.80;99.90
37478;DHT22;23334;54.316;10.182;2022-09-12T21:50:08;17.70;99.90
37478;DHT22;23334;54.316;10.182;2022-09-12T21:52:34;17.70;99.90
37478;DHT22;23334;54.316;10.182;2022-09-12T21:55:00;17.70;99.90
37478;DHT22;23334;54.316;10.182;2022-09-12T21:57:29;18.00;99.90
37478;DHT22;23334;54.316;10.182;2022-09-12T21:59:54;17.60;99.90
37478;DHT22;23334;54.316;10.182;2022-09-12T22:02:20;17.70;99.90
37478;DHT22;23334;54.316;10.182;2022-09-12T22:04:47;17.60;99.90
37478;DHT22;23334;54.316;10.182;2022-09-12T22:07:17;17.70;99.90
37478;DHT22;23334;54.316;10.182;2022-09-12T22:09:42;17.70;99.90
37478;DHT22;23334;54.316;10.182;2022-09-12T22:12:08;17.70;99.90
37478;DHT22;23334;54.316;10.182;2022-09-12T22:14:33;17.60;99.90
37478;DHT22;23334;54.316;10.182;2022-09-12T22:16:59;17.30;99.90
37478;DHT22;23334;54.316;10.182;2022-09-12T22:19:24;17.60;99.90
37478;DHT22;23334;54.316;10.182;2022-09-12T22:21:51;17.70;99.90
37478;DHT22;23334;54.316;10.182;2022-09-12T22:24:35;17.60;99.90
37478;DHT22;23334;54.316;10.182;2022-09-12T22:27:02;17.20;99.90